Time;durP1;ratioP1;P1;durP2;ratioP2;P2;SDS_P1;SDS_P2;PMS_P1;PMS_P2;Temp;Humidity;BMP_temperature;BMP_pressure;BME280_temperature;BME280_humidity;BME280_pressure;Samples;Min_cycle;Max_cycle;Signal;HPM_P1;HPM_P2
2022/02/28 00:01:36;;;;;;;78.00;43.80;;;;;;;-1.29;66.56;102411.52;108506;1273;22004;-78
2022/02/28 00:04:05;;;;;;;73.50;44.10;;;;;;;-1.29;66.51;102407.58;108741;1272;21997;-78
2022/02/28 00:06:37;;;;;;;76.00;43.00;;;;;;;-1.29;66.49;102407.90;108496;1275;22007;-76
2022/02/28 00:09:05;;;;;;;70.40;41.60;;;;;;;-1.28;66.58;102404.79;108671;1273;23704;-78
2022/02/28 00:11:35;;;;;;;67.50;42.60;;;;;;;-1.28;66.62;102403.05;108532;1273;23066;-77
2022/02/28 00:14:07;;;;;;;67.20;39.90;;;;;;;-1.27;66.55;102399.75;108731;1272;23508;-78
2022/02/28 00:16:36;;;;;;;55.50;32.90;;;;;;;-1.27;66.56;102398.52;108520;1273;22003;-78
2022/02/28 00:19:06;;;;;;;46.40;26.00;;;;;;;-1.28;66.56;102400.44;108526;1272;23639;-78
2022/02/28 00:21:35;;;;;;;45.30;22.30;;;;;;;-1.29;66.48;102398.23;108683;1272;22469;-78
2022/02/28 00:24:04;;;;;;;38.30;23.30;;;;;;;-1.30;66.52;102398.09;108718;1272;22003;-77
2022/02/28 00:26:33;;;;;;;44.90;25.10;;;;;;;-1.31;66.54;102393.45;108720;1272;22454;-77
2022/02/28 00:29:02;;;;;;;38.90;23.80;;;;;;;-1.33;66.59;102391.24;108707;1273;22004;-77
2022/02/28 00:31:31;;;;;;;39.60;24.20;;;;;;;-1.36;66.53;102390.64;108742;1272;22231;-78
2022/02/28 00:34:03;;;;;;;39.50;25.00;;;;;;;-1.40;66.64;102388.84;108514;1274;22453;-78
2022/02/28 00:36:32;;;;;;;47.60;27.50;;;;;;;-1.44;66.80;102384.45;108688;1273;22222;-78
2022/02/28 00:39:02;;;;;;;46.80;29.30;;;;;;;-1.49;66.78;102383.56;108653;1273;23799;-78
2022/02/28 00:41:31;;;;;;;49.40;28.40;;;;;;;-1.53;66.84;102382.11;108411;1275;22001;-78
2022/02/28 00:44:00;;;;;;;50.00;28.90;;;;;;;-1.56;66.86;102381.33;108697;1274;24333;-77
2022/02/28 00:46:31;;;;;;;51.00;28.80;;;;;;;-1.59;66.93;102376.20;108748;1272;22804;-78
2022/02/28 00:49:01;;;;;;;49.30;25.60;;;;;;;-1.60;66.91;102378.15;108544;1272;21992;-77
2022/02/28 00:51:29;;;;;;;44.10;28.70;;;;;;;-1.62;66.99;102377.85;108643;1273;21990;-78
2022/02/28 00:53:58;;;;;;;39.90;27.00;;;;;;;-1.62;67.02;102379.22;108684;1272;23601;-78
2022/02/28 00:56:28;;;;;;;49.50;30.60;;;;;;;-1.63;67.04;102379.77;108754;1272;22003;-78
2022/02/28 00:58:56;;;;;;;50.20;29.40;;;;;;;-1.64;67.15;102376.35;108737;1272;21991;-77
2022/02/28 01:01:25;;;;;;;46.20;29.80;;;;;;;-1.64;67.33;102377.58;108744;1272;21987;-77
2022/02/28 01:03:55;;;;;;;45.90;27.90;;;;;;;-1.65;67.32;102378.11;108722;1272;24336;-77
2022/02/28 01:06:24;;;;;;;46.80;28.40;;;;;;;-1.66;67.37;102374.48;108618;1273;23619;-77
2022/02/28 01:08:53;;;;;;;46.90;29.00;;;;;;;-1.67;67.46;102371.92;108740;1271;22782;-78
2022/02/28 01:11:22;;;;;;;45.70;28.30;;;;;;;-1.67;67.53;102371.94;108680;1273;23087;-78
2022/02/28 01:13:52;;;;;;;43.10;27.60;;;;;;;-1.67;67.64;102375.23;108524;1272;23531;-77
2022/02/28 01:16:21;;;;;;;44.60;26.90;;;;;;;-1.69;67.60;102373.52;108703;1272;23014;-77
2022/02/28 01:18:50;;;;;;;41.80;26.90;;;;;;;-1.70;67.60;102373.21;108719;1272;21989;-77
2022/02/28 01:21:20;;;;;;;46.30;25.90;;;;;;;-1.72;67.76;102368.93;108522;1272;21996;-77
2022/02/28 01:23:49;;;;;;;41.20;26.70;;;;;;;-1.73;67.85;102368.80;108746;1272;21992;-77
2022/02/28 01:26:18;;;;;;;43.70;25.60;;;;;;;-1.74;67.93;102369.34;108513;1272;21988;-77
2022/02/28 01:28:47;;;;;;;39.50;26.00;;;;;;;-1.75;67.95;102370.05;108750;1272;21976;-77
2022/02/28 01:31:16;;;;;;;50.50;26.40;;;;;;;-1.76;68.05;102368.88;108757;1272;24339;-77
2022/02/28 01:33:45;;;;;;;41.90;24.60;;;;;;;-1.77;68.13;102367.86;108710;1272;22042;-77
2022/02/28 01:36:14;;;;;;;41.50;25.20;;;;;;;-1.77;68.18;102366.32;108616;1272;21988;-77
2022/02/28 01:38:43;;;;;;;37.40;24.50;;;;;;;-1.78;68.31;102362.20;108694;1272;21994;-77
2022/02/28 01:41:12;;;;;;;40.40;25.20;;;;;;;-1.79;68.36;102363.08;108698;1272;23031;-78
2022/02/28 01:43:42;;;;;;;43.30;24.20;;;;;;;-1.82;68.39;102362.29;108771;1271;23625;-77
2022/02/28 01:46:11;;;;;;;37.10;24.50;;;;;;;-1.84;68.53;102359.95;108734;1272;22000;-77
2022/02/28 01:48:40;;;;;;;41.50;24.60;;;;;;;-1.86;68.63;102363.09;108473;1272;23751;-77
2022/02/28 01:51:09;;;;;;;37.40;24.20;;;;;;;-1.86;68.57;102359.98;108740;1272;21994;-77
2022/02/28 01:53:37;;;;;;;40.00;24.40;;;;;;;-1.85;68.63;102361.52;108777;1272;23015;-77
2022/02/28 01:56:06;;;;;;;42.70;27.20;;;;;;;-1.85;68.55;102361.86;108767;1271;22015;-77
2022/02/28 01:58:39;;;;;;;40.80;24.50;;;;;;;-1.85;68.59;102357.35;108710;1272;21999;-77
2022/02/28 02:01:08;;;;;;;42.90;25.50;;;;;;;-1.84;68.60;102353.02;108467;1272;22249;-78
2022/02/28 02:03:38;;;;;;;38.50;23.40;;;;;;;-1.84;68.64;102346.81;108697;1273;21985;-76
2022/02/28 02:06:09;;;;;;;44.50;25.50;;;;;;;-1.84;68.78;102342.66;108607;1272;21989;-78
2022/02/28 02:08:40;;;;;;;;;;;;;;;-1.84;68.77;102346.11;108790;1272;23657;-77
2022/02/28 02:11:09;;;;;;;36.40;21.50;;;;;;;-1.89;68.84;102348.13;108661;1272;22782;-77
2022/02/28 02:13:39;;;;;;;41.50;23.90;;;;;;;-1.90;68.92;102347.82;108555;1273;22387;-76
2022/02/28 02:16:09;;;;;;;38.10;23.80;;;;;;;-1.89;68.96;102347.96;108490;1274;22018;-76
2022/02/28 02:18:39;;;;;;;37.00;23.20;;;;;;;-1.87;68.94;102348.61;108687;1272;23623;-76
2022/02/28 02:21:08;;;;;;;35.50;21.50;;;;;;;-1.86;68.95;102352.39;108711;1271;23773;-76
2022/02/28 02:23:37;;;;;;;35.90;22.40;;;;;;;-1.86;68.90;102351.35;108701;1273;22484;-78
2022/02/28 02:26:06;;;;;;;31.40;20.80;;;;;;;-1.88;68.92;102356.93;108724;1272;21985;-77
2022/02/28 02:28:36;;;;;;;35.00;23.20;;;;;;;-1.92;69.06;102356.65;108755;1272;24307;-77
2022/02/28 02:31:06;;;;;;;33.90;22.90;;;;;;;-1.95;69.09;102352.42;108741;1272;24330;-77
2022/02/28 02:33:38;;;;;;;39.00;23.40;;;;;;;-1.98;69.14;102357.16;108761;1272;23086;-77
2022/02/28 02:36:09;;;;;;;34.50;21.40;;;;;;;-2.00;69.16;102352.56;108747;1272;23405;-77
2022/02/28 02:38:39;;;;;;;;;;;;;;;-2.02;69.15;102351.92;108688;1273;21986;-77
2022/02/28 02:41:08;;;;;;;32.90;19.80;;;;;;;-2.10;69.23;102347.27;108404;1276;22375;-78
2022/02/28 02:43:38;;;;;;;29.50;18.60;;;;;;;-2.13;69.30;102348.56;108377;1276;22058;-77
2022/02/28 02:46:07;;;;;;;38.20;20.00;;;;;;;-2.12;69.35;102349.07;108373;1278;21995;-77
2022/02/28 02:48:36;;;;;;;31.20;21.70;;;;;;;-2.11;69.37;102349.20;108424;1276;21995;-77
2022/02/28 02:51:08;;;;;;;;;;;;;;;-2.10;69.39;102354.53;108444;1276;24557;-77
2022/02/28 02:53:37;;;;;;;34.10;21.30;;;;;;;-2.15;69.53;102352.73;108390;1276;22073;-77
2022/02/28 02:56:07;;;;;;;33.80;21.00;;;;;;;-2.15;69.70;102351.34;108395;1276;22925;-77
2022/02/28 02:58:38;;;;;;;37.40;21.80;;;;;;;-2.11;69.77;102353.52;108522;1273;21996;-77
2022/02/28 03:01:07;;;;;;;31.90;21.90;;;;;;;-2.09;69.78;102358.47;108500;1273;21985;-77
2022/02/28 03:03:37;;;;;;;37.90;23.70;;;;;;;-2.07;69.73;102357.05;108536;1273;24326;-77
2022/02/28 03:06:07;;;;;;;34.60;23.90;;;;;;;-2.08;69.78;102355.70;108714;1272;21987;-77
2022/02/28 03:08:37;;;;;;;43.50;26.50;;;;;;;-2.12;69.69;102353.20;108722;1272;23704;-77
2022/02/28 03:11:06;;;;;;;38.30;25.60;;;;;;;-2.17;69.73;102351.76;108747;1273;24248;-77
2022/02/28 03:13:36;;;;;;;40.90;26.70;;;;;;;-2.21;69.82;102352.03;108705;1272;23064;-76
2022/02/28 03:16:05;;;;;;;35.90;23.50;;;;;;;-2.22;69.87;102354.99;108738;1272;23005;-77
2022/02/28 03:18:36;;;;;;;37.30;24.00;;;;;;;-2.23;69.91;102357.09;108732;1272;23705;-77
2022/02/28 03:21:05;;;;;;;37.60;22.50;;;;;;;-2.24;70.00;102357.80;108500;1275;22208;-77
2022/02/28 03:23:34;;;;;;;34.30;21.60;;;;;;;-2.25;70.00;102356.43;108763;1272;22087;-77
2022/02/28 03:26:08;;;;;;;29.20;20.10;;;;;;;-2.24;70.03;102362.11;108716;1272;22215;-77
2022/02/28 03:28:41;;;;;;;36.50;21.60;;;;;;;-2.25;70.00;102360.23;108740;1272;22018;-78
2022/02/28 03:31:10;;;;;;;36.00;21.80;;;;;;;-2.27;69.98;102365.46;108716;1273;23719;-77
2022/02/28 03:33:40;;;;;;;33.70;20.80;;;;;;;-2.28;70.04;102363.95;108774;1272;22009;-77
2022/02/28 03:36:09;;;;;;;37.50;22.00;;;;;;;-2.29;70.11;102363.61;108693;1272;21995;-77
2022/02/28 03:38:43;;;;;;;32.00;20.10;;;;;;;-2.30;70.17;102363.14;108708;1273;23078;-77
2022/02/28 03:41:14;;;;;;;33.10;19.00;;;;;;;-2.31;70.21;102362.10;108514;1273;22003;-77
2022/02/28 03:43:43;;;;;;;32.20;21.60;;;;;;;-2.31;70.22;102359.87;108638;1273;22813;-77
2022/02/28 03:46:15;;;;;;;32.80;22.30;;;;;;;-2.33;70.23;102361.30;108646;1272;22786;-77
2022/02/28 03:49:03;;;;;;;32.80;20.10;;;;;;;-2.34;70.30;102364.95;108561;1272;22115;-77
2022/02/28 03:51:48;;;;;;;34.50;19.30;;;;;;;-2.37;70.38;102363.11;108648;1274;23798;-77
2022/02/28 03:54:31;;;;;;;32.90;19.30;;;;;;;-2.38;70.40;102364.52;108395;1276;22462;-77
2022/02/28 03:57:00;;;;;;;34.20;21.10;;;;;;;-2.39;70.48;102361.95;108395;1277;21995;-77
2022/02/28 03:59:29;;;;;;;31.90;21.20;;;;;;;-2.40;70.53;102360.05;108381;1276;23616;-77
2022/02/28 04:01:58;;;;;;;32.90;20.10;;;;;;;-2.41;70.55;102359.73;108362;1276;23028;-77
2022/02/28 04:04:38;;;;;;;30.20;19.30;;;;;;;-2.41;70.58;102361.30;108367;1276;23796;-77
2022/02/28 04:07:09;;;;;;;30.20;19.10;;;;;;;-2.42;70.65;102357.02;108402;1276;22048;-78
2022/02/28 04:09:41;;;;;;;31.30;19.20;;;;;;;-2.43;70.67;102351.17;108326;1278;22009;-77
2022/02/28 04:12:11;;;;;;;27.80;18.30;;;;;;;-2.44;70.73;102351.52;108515;1274;22356;-78
2022/02/28 04:14:43;;;;;;;30.40;19.20;;;;;;;-2.46;70.74;102350.52;108692;1272;22042;-78
2022/02/28 04:17:13;;;;;;;29.50;19.50;;;;;;;-2.46;70.78;102351.41;108682;1273;22584;-78
2022/02/28 04:19:43;;;;;;;29.20;17.20;;;;;;;-2.47;70.76;102352.83;108641;1273;22005;-77
2022/02/28 04:22:12;;;;;;;29.00;17.40;;;;;;;-2.50;70.75;102353.23;108656;1273;23092;-77
2022/02/28 04:24:45;;;;;;;28.80;18.30;;;;;;;-2.52;70.77;102357.77;108761;1272;23600;-77
2022/02/28 04:27:14;;;;;;;26.10;16.70;;;;;;;-2.53;70.87;102359.16;108701;1272;22000;-77
2022/02/28 04:29:49;;;;;;;27.50;17.80;;;;;;;-2.54;70.94;102359.54;108795;1272;22223;-77
2022/02/28 04:32:20;;;;;;;28.80;17.30;;;;;;;-2.55;71.01;102357.83;108737;1272;22031;-78
2022/02/28 04:34:55;;;;;;;26.50;16.50;;;;;;;-2.54;71.07;102356.43;108726;1271;21992;-78
2022/02/28 04:37:29;;;;;;;27.30;16.90;;;;;;;-2.55;71.11;102357.33;108648;1274;23102;-80
2022/02/28 04:40:05;;;;;;;31.20;17.50;;;;;;;-2.56;71.14;102356.83;108531;1276;22011;-77
2022/02/28 04:42:36;;;;;;;25.70;16.10;;;;;;;-2.57;71.06;102357.52;108444;1276;23057;-76
2022/02/28 04:45:06;;;;;;;25.10;16.30;;;;;;;-2.58;71.01;102357.02;108569;1273;23071;-76
2022/02/28 04:47:35;;;;;;;28.60;16.70;;;;;;;-2.58;71.02;102353.58;108485;1276;22086;-76
2022/02/28 04:50:07;;;;;;;24.70;17.00;;;;;;;-2.60;71.05;102353.11;108481;1276;21998;-77
2022/02/28 04:52:38;;;;;;;26.90;17.30;;;;;;;-2.60;71.10;102352.25;108417;1275;23011;-76
2022/02/28 04:55:07;;;;;;;25.20;14.90;;;;;;;-2.61;71.18;102351.58;108648;1273;23714;-77
2022/02/28 04:57:43;;;;;;;21.40;14.50;;;;;;;-2.63;71.06;102352.14;108536;1273;22101;-77
2022/02/28 05:00:16;;;;;;;28.10;15.30;;;;;;;-2.66;71.05;102350.30;108753;1272;22063;-77
2022/02/28 05:02:47;;;;;;;21.10;13.00;;;;;;;-2.67;71.07;102348.61;108706;1272;22739;-77
2022/02/28 05:05:22;;;;;;;23.30;14.90;;;;;;;-2.69;71.11;102348.65;108631;1272;23078;-77
2022/02/28 05:07:53;;;;;;;23.40;14.50;;;;;;;-2.69;71.16;102351.75;108705;1272;22074;-77
2022/02/28 05:10:23;;;;;;;24.30;14.30;;;;;;;-2.69;71.18;102352.79;108733;1272;22001;-76
2022/02/28 05:12:56;;;;;;;20.30;13.20;;;;;;;-2.69;71.17;102356.41;108722;1272;23584;-78
2022/02/28 05:15:25;;;;;;;22.60;13.70;;;;;;;-2.70;71.15;102355.40;108745;1272;23610;-77
2022/02/28 05:17:54;;;;;;;24.50;14.40;;;;;;;-2.71;71.10;102356.27;108759;1272;21990;-77
2022/02/28 05:20:24;;;;;;;30.30;15.50;;;;;;;-2.72;71.11;102356.83;108744;1272;22012;-77
2022/02/28 05:22:53;;;;;;;22.20;14.40;;;;;;;-2.74;71.12;102360.65;108735;1272;21997;-77
2022/02/28 05:25:22;;;;;;;24.20;14.90;;;;;;;-2.74;71.13;102366.52;108706;1272;22404;-77
2022/02/28 05:27:53;;;;;;;24.10;14.10;;;;;;;-2.73;71.09;102367.38;108639;1272;22049;-77
2022/02/28 05:30:22;;;;;;;25.90;15.20;;;;;;;-2.75;71.07;102370.17;108708;1272;22358;-77
2022/02/28 05:32:54;;;;;;;24.10;16.50;;;;;;;-2.78;71.08;102376.09;108741;1273;23629;-77
2022/02/28 05:35:30;;;;;;;31.20;17.40;;;;;;;-2.81;71.09;102377.52;108778;1272;23609;-77
2022/02/28 05:38:09;;;;;;;23.20;15.20;;;;;;;-2.81;71.16;102373.56;108508;1272;23154;-77
2022/02/28 05:40:39;;;;;;;23.00;15.30;;;;;;;-2.81;71.18;102374.77;108740;1272;23609;-77
2022/02/28 05:43:11;;;;;;;30.00;17.00;;;;;;;-2.81;71.19;102376.86;108757;1272;21991;-77
2022/02/28 05:45:41;;;;;;;32.10;21.70;;;;;;;-2.82;71.19;102375.66;108780;1272;23742;-76
2022/02/28 05:48:45;;;;;;;37.00;23.60;;;;;;;-2.84;71.20;102372.26;108479;1275;22944;-77
2022/02/28 05:51:18;;;;;;;37.30;21.60;;;;;;;-2.82;71.32;102374.98;108471;1276;22228;-77
2022/02/28 05:53:47;;;;;;;36.70;23.40;;;;;;;-2.80;71.32;102378.39;108687;1275;22765;-77
2022/02/28 05:56:16;;;;;;;43.20;23.30;;;;;;;-2.79;71.29;102379.76;108463;1276;22074;-77
2022/02/28 05:58:45;;;;;;;39.10;22.30;;;;;;;-2.79;71.31;102383.71;108534;1275;23811;-77
2022/02/28 06:01:15;;;;;;;29.40;19.80;;;;;;;-2.77;71.40;102392.28;108397;1276;22014;-78
2022/02/28 06:03:44;;;;;;;28.30;18.60;;;;;;;-2.76;71.40;102395.88;108569;1274;22080;-78
2022/02/28 06:06:14;;;;;;;36.20;18.30;;;;;;;-2.74;71.43;102393.61;108557;1275;22227;-77
2022/02/28 06:08:44;;;;;;;26.10;16.80;;;;;;;-2.71;71.51;102394.91;108434;1276;22613;-77
2022/02/28 06:11:16;;;;;;;23.80;16.30;;;;;;;-2.69;71.46;102393.16;108409;1276;21996;-77
2022/02/28 06:13:51;;;;;;;;;;;;;;;-2.66;71.54;102393.79;108565;1276;22308;-77
2022/02/28 06:16:20;;;;;;;35.10;24.10;;;;;;;-2.67;71.63;102395.86;108458;1276;23611;-76
2022/02/28 06:18:49;;;;;;;30.60;20.30;;;;;;;-2.66;71.68;102398.79;108652;1275;22802;-77
2022/02/28 06:21:20;;;;;;;25.70;17.40;;;;;;;-2.61;71.66;102403.50;108447;1276;23623;-77
2022/02/28 06:23:48;;;;;;;27.30;15.90;;;;;;;-2.57;71.68;102399.45;108607;1272;22369;-78
2022/02/28 06:26:19;;;;;;;27.80;18.30;;;;;;;-2.54;71.62;102403.00;108744;1272;21957;-77
2022/02/28 06:28:48;;;;;;;24.90;17.40;;;;;;;-2.50;71.71;102407.77;108673;1272;22241;-77
2022/02/28 06:31:17;;;;;;;26.50;16.50;;;;;;;-2.47;71.62;102410.62;108621;1273;21988;-78
2022/02/28 06:33:49;;;;;;;25.30;17.70;;;;;;;-2.44;71.60;102419.00;108735;1272;23101;-78
2022/02/28 06:36:18;;;;;;;27.00;17.00;;;;;;;-2.42;71.57;102417.24;108471;1273;21989;-78
2022/02/28 06:38:47;;;;;;;24.60;17.00;;;;;;;-2.41;71.56;102417.21;108754;1272;21988;-78
2022/02/28 06:41:16;;;;;;;30.00;17.40;;;;;;;-2.38;71.74;102425.26;108689;1273;23120;-76
2022/02/28 06:43:45;;;;;;;27.30;19.20;;;;;;;-2.35;71.65;102433.30;108786;1272;21994;-77
2022/02/28 06:46:14;;;;;;;33.40;20.30;;;;;;;-2.36;71.64;102435.90;108803;1272;22003;-78
2022/02/28 06:48:43;;;;;;;27.20;20.00;;;;;;;-2.35;71.74;102431.74;108786;1273;22006;-78
2022/02/28 06:51:14;;;;;;;38.80;24.80;;;;;;;-2.32;71.78;102436.52;108786;1271;22000;-78
2022/02/28 06:53:43;;;;;;;41.00;27.10;;;;;;;-2.28;71.78;102436.44;108768;1273;22044;-78
2022/02/28 06:56:15;;;;;;;38.10;25.60;;;;;;;-2.26;71.67;102438.10;108698;1272;22238;-77
2022/02/28 06:58:45;;;;;;;41.60;27.90;;;;;;;-2.23;71.66;102438.21;108623;1272;22016;-77
2022/02/28 07:01:17;;;;;;;43.00;31.60;;;;;;;-2.17;71.62;102439.80;108705;1272;22301;-77
2022/02/28 07:03:55;;;;;;;41.10;29.80;;;;;;;-2.12;71.66;102438.99;108678;1272;23772;-77
2022/02/28 07:06:24;;;;;;;28.90;19.80;;;;;;;-2.04;71.76;102442.27;108757;1272;23717;-77
2022/02/28 07:08:54;;;;;;;28.60;19.30;;;;;;;-1.96;71.60;102447.09;108717;1272;22009;-77
2022/02/28 07:11:23;;;;;;;28.10;19.40;;;;;;;-1.91;71.50;102444.55;108537;1272;230802;-77
2022/02/28 07:13:52;;;;;;;27.70;16.50;;;;;;;-1.83;71.58;102447.13;108497;1272;21989;-77
2022/02/28 07:16:21;;;;;;;25.00;19.50;;;;;;;-1.73;71.63;102452.07;108783;1273;23606;-77
2022/02/28 07:18:51;;;;;;;22.60;17.10;;;;;;;-1.61;71.76;102455.41;108765;1273;22071;-77
2022/02/28 07:21:20;;;;;;;25.60;18.10;;;;;;;-1.48;71.68;102454.73;108710;1272;23077;-77
2022/02/28 07:23:49;;;;;;;24.90;17.40;;;;;;;-1.37;71.63;102457.05;108749;1272;22839;-78
2022/02/28 07:26:18;;;;;;;20.30;15.50;;;;;;;-1.26;71.56;102458.13;108747;1272;21999;-78
2022/02/28 07:28:49;;;;;;;20.70;17.70;;;;;;;-1.14;71.60;102457.98;108749;1273;23039;-78
2022/02/28 07:31:36;;;;;;;24.00;18.60;;;;;;;-0.97;71.68;102461.00;108774;1272;22969;-77
2022/02/28 07:34:05;;;;;;;25.90;20.40;;;;;;;-0.78;71.85;102464.45;108700;1273;22017;-78
2022/02/28 07:36:35;;;;;;;25.70;17.80;;;;;;;-0.57;71.83;102473.35;108709;1272;24460;-77
2022/02/28 07:39:04;;;;;;;20.60;17.60;;;;;;;-0.31;71.84;102470.86;108732;1272;24329;-76
2022/02/28 07:41:33;;;;;;;26.40;18.40;;;;;;;0.00;71.81;102469.39;108730;1272;23153;-77
2022/02/28 07:44:03;;;;;;;24.30;19.50;;;;;;;0.38;72.07;102470.27;108737;1272;23048;-78
2022/02/28 07:46:32;;;;;;;21.50;14.90;;;;;;;0.90;72.94;102471.98;108718;1271;23105;-81
2022/02/28 07:49:01;;;;;;;22.40;15.20;;;;;;;1.44;72.88;102469.36;108726;1273;23090;-78
2022/02/28 07:51:30;;;;;;;21.10;13.90;;;;;;;1.92;72.11;102472.89;108666;1272;21990;-78
2022/02/28 07:53:59;;;;;;;16.70;12.60;;;;;;;2.36;70.99;102473.75;108768;1272;23008;-78
2022/02/28 07:56:28;;;;;;;21.40;15.20;;;;;;;2.64;68.98;102478.84;108795;1272;21999;-79
2022/02/28 07:58:57;;;;;;;22.90;16.60;;;;;;;2.84;67.78;102481.81;108689;1272;21988;-77
2022/02/28 08:01:26;;;;;;;24.20;16.30;;;;;;;3.13;67.24;102484.92;108729;1272;23831;-78
2022/02/28 08:03:56;;;;;;;19.90;15.10;;;;;;;3.45;66.44;102488.91;108699;1272;22007;-78
2022/02/28 08:06:25;;;;;;;23.10;14.30;;;;;;;3.72;65.11;102493.61;108763;1272;22460;-77
2022/02/28 08:08:54;;;;;;;19.00;14.00;;;;;;;3.93;63.65;102493.34;108721;1272;23835;-77
2022/02/28 08:11:23;;;;;;;19.90;14.20;;;;;;;4.10;62.61;102494.95;108746;1272;22041;-78
2022/02/28 08:13:52;;;;;;;21.10;14.10;;;;;;;4.34;62.21;102498.30;108748;1272;22005;-78
2022/02/28 08:16:21;;;;;;;22.70;14.80;;;;;;;4.71;62.16;102497.53;109391;1272;22004;-78
2022/02/28 08:18:50;;;;;;;25.80;12.60;;;;;;;4.95;60.55;102503.84;108963;1272;21988;-78
2022/02/28 08:21:19;;;;;;;22.60;14.90;;;;;;;5.13;59.08;102506.77;108724;1273;23481;-78
2022/02/28 08:23:48;;;;;;;21.70;14.40;;;;;;;5.18;57.71;102510.48;108704;1272;23099;-78
2022/02/28 08:55:59;;;;;;;15.30;10.40;;;;;;;6.09;52.80;102522.77;108811;1272;22093;-78
2022/02/28 08:58:28;;;;;;;15.90;11.50;;;;;;;5.98;52.47;102526.52;108791;1273;22781;-77
2022/02/28 09:00:57;;;;;;;11.90;9.00;;;;;;;6.09;52.94;102525.93;108536;1275;23684;-77
2022/02/28 09:03:26;;;;;;;14.10;10.30;;;;;;;6.12;52.38;102527.84;108715;1273;21990;-77
2022/02/28 09:05:55;;;;;;;13.00;10.10;;;;;;;6.17;52.06;102532.96;108684;1272;21988;-78
2022/02/28 09:08:25;;;;;;;12.50;10.70;;;;;;;6.14;51.68;102527.39;108599;1273;23014;-78
2022/02/28 09:10:54;;;;;;;16.20;10.90;;;;;;;6.29;52.33;102527.58;108664;1273;22700;-78
2022/02/28 09:13:23;;;;;;;11.80;9.10;;;;;;;6.43;51.47;102526.80;108531;1273;21987;-77
2022/02/28 09:15:53;;;;;;;17.20;12.00;;;;;;;6.43;50.60;102530.11;108736;1273;21992;-77
2022/02/28 09:18:28;;;;;;;14.40;10.30;;;;;;;6.30;49.88;102531.57;108740;1273;22777;-78
2022/02/28 09:21:00;;;;;;;14.30;9.80;;;;;;;6.22;49.88;102527.61;108565;1274;21962;-77
2022/02/28 09:23:32;;;;;;;14.40;9.40;;;;;;;6.12;49.78;102530.31;108555;1275;24346;-78
2022/02/28 09:26:06;;;;;;;15.10;11.20;;;;;;;6.01;49.51;102532.48;108657;1273;22005;-79
2022/02/28 09:28:39;;;;;;;14.40;10.70;;;;;;;5.98;49.84;102534.02;108556;1275;22860;-78
2022/02/28 09:31:08;;;;;;;14.40;8.90;;;;;;;5.95;49.68;102534.73;108487;1272;21994;-76
2022/02/28 09:33:41;;;;;;;10.40;8.00;;;;;;;5.94;49.61;102535.48;108649;1272;22003;-81
2022/02/28 09:36:13;;;;;;;11.30;8.40;;;;;;;5.91;49.22;102537.23;108692;1272;23443;-80
2022/02/28 09:38:42;;;;;;;19.50;11.00;;;;;;;5.81;49.27;102535.80;108817;1272;23725;-81
2022/02/28 09:41:39;;;;;;;11.00;8.90;;;;;;;5.87;49.58;102536.54;108596;1274;23579;-78
2022/02/28 09:44:46;;;;;;;20.20;12.60;;;;;;;5.83;49.13;102533.07;108734;1272;23638;-78
2022/02/28 09:47:35;;;;;;;13.30;9.80;;;;;;;5.81;49.10;102530.39;108728;1273;22107;-81
2022/02/28 09:50:20;;;;;;;14.50;9.70;;;;;;;5.83;49.10;102531.15;108812;1273;23733;-80
2022/02/28 09:53:16;;;;;;;14.10;8.10;;;;;;;5.97;49.06;102530.23;108590;1275;22224;-80
2022/02/28 09:56:05;;;;;;;12.50;8.60;;;;;;;6.04;48.30;102532.98;108571;1273;24028;-80
2022/02/28 09:59:09;;;;;;;10.80;8.20;;;;;;;6.02;48.26;102528.38;107953;1285;23713;-79
2022/02/28 10:02:00;;;;;;;8.60;7.00;;;;;;;6.20;48.58;102530.05;107938;1285;22014;-80
2022/02/28 10:04:31;;;;;;;9.70;7.50;;;;;;;6.36;47.95;102533.19;107980;1285;22151;-80
2022/02/28 10:07:00;;;;;;;8.50;6.40;;;;;;;6.29;46.75;102531.09;107859;1285;23159;-81
2022/02/28 10:09:30;;;;;;;9.20;6.40;;;;;;;6.28;46.79;102525.89;108253;1285;24457;-81
2022/02/28 10:12:00;;;;;;;14.10;6.10;;;;;;;6.38;46.43;102531.99;108402;1283;23081;-81
2022/02/28 10:14:32;;;;;;;10.00;6.50;;;;;;;6.30;45.24;102534.71;108207;1285;21973;-80
2022/02/28 10:17:03;;;;;;;12.10;7.70;;;;;;;6.37;45.92;102532.38;107731;1287;22009;-80
2022/02/28 10:19:33;;;;;;;10.70;6.90;;;;;;;6.57;45.35;102536.65;107633;1287;22044;-80
2022/02/28 10:22:05;;;;;;;8.30;6.20;;;;;;;6.70;44.70;102530.83;107779;1287;22061;-80
2022/02/28 10:24:42;;;;;;;10.20;6.50;;;;;;;6.96;44.35;102533.36;107819;1285;22060;-80
2022/02/28 10:27:16;;;;;;;8.90;6.30;;;;;;;7.23;43.74;102531.73;107975;1283;22945;-81
2022/02/28 10:30:27;;;;;;;12.00;6.10;;;;;;;7.58;43.20;102537.11;107226;1287;23616;-79
2022/02/28 10:33:15;;;;;;;12.30;7.00;;;;;;;7.98;42.97;102536.57;107746;1282;22007;-80
2022/02/28 10:36:21;;;;;;;11.40;7.10;;;;;;;8.80;42.86;102534.36;108480;1275;23185;-79
2022/02/28 10:39:07;;;;;;;6.50;5.40;;;;;;;9.81;41.93;102536.31;108605;1275;23063;-80
2022/02/28 10:41:41;;;;;;;6.90;4.70;;;;;;;10.52;39.88;102538.42;108473;1276;22258;-79
2022/02/28 10:44:13;;;;;;;8.20;5.10;;;;;;;11.03;38.56;102536.72;108503;1277;22111;-81
2022/02/28 10:46:47;;;;;;;18.40;7.20;;;;;;;11.61;37.76;102535.73;108493;1276;22002;-80
2022/02/28 10:49:21;;;;;;;7.50;5.90;;;;;;;12.34;37.34;102535.68;108750;1272;22074;-80
2022/02/28 10:51:57;;;;;;;6.00;4.80;;;;;;;13.02;35.94;102527.94;108558;1275;21999;-79
2022/02/28 10:54:32;;;;;;;11.00;5.70;;;;;;;13.43;34.16;102538.38;108562;1275;23735;-81
2022/02/28 10:57:09;;;;;;;7.50;5.10;;;;;;;13.70;33.06;102534.28;108815;1273;22001;-80
2022/02/28 10:59:45;;;;;;;6.30;4.80;;;;;;;13.96;32.20;102540.82;108707;1273;22226;-80
2022/02/28 11:02:31;;;;;;;6.60;5.60;;;;;;;13.90;30.48;102534.40;108777;1272;22011;-81
2022/02/28 11:05:11;;;;;;;8.50;6.00;;;;;;;13.52;31.14;102525.26;108637;1273;21988;-81
2022/02/28 11:07:44;;;;;;;10.60;6.10;;;;;;;13.75;31.23;102530.13;108797;1272;22007;-80
2022/02/28 11:10:17;;;;;;;5.50;4.80;;;;;;;14.11;31.00;102536.29;108551;1272;22007;-80
2022/02/28 11:12:48;;;;;;;6.10;4.70;;;;;;;14.57;30.71;102538.89;108386;1278;22004;-80
2022/02/28 11:15:22;;;;;;;7.00;4.70;;;;;;;15.06;29.71;102539.84;108465;1276;22002;-80
2022/02/28 11:17:52;;;;;;;8.10;5.00;;;;;;;15.17;27.58;102533.84;108383;1278;22019;-79
2022/02/28 11:20:21;;;;;;;8.30;4.60;;;;;;;14.56;25.89;102534.55;108472;1276;23791;-81
2022/02/28 11:22:51;;;;;;;9.90;5.40;;;;;;;13.26;25.81;102533.96;108057;1281;23731;-81
2022/02/28 11:25:21;;;;;;;9.20;5.20;;;;;;;12.12;27.59;102535.94;108090;1281;21978;-81
2022/02/28 11:27:52;;;;;;;16.30;14.20;;;;;;;11.12;27.65;102533.75;108227;1280;23101;-81
2022/02/28 11:30:24;;;;;;;10.80;8.20;;;;;;;9.89;28.15;102529.78;108127;1279;23180;-81
2022/02/28 11:33:02;;;;;;;8.20;6.40;;;;;;;8.87;29.21;102528.08;108281;1282;22013;-79
2022/02/28 11:35:37;;;;;;;13.20;9.20;;;;;;;8.02;29.92;102528.73;108153;1281;22071;-78
2022/02/28 11:38:15;;;;;;;11.00;7.40;;;;;;;7.12;30.86;102529.54;108255;1281;22005;-77
2022/02/28 11:40:50;;;;;;;9.40;6.70;;;;;;;6.24;31.83;102519.64;108454;1276;23016;-78
2022/02/28 11:43:25;;;;;;;8.40;5.50;;;;;;;5.61;33.00;102518.20;108496;1275;23154;-76
2022/02/28 11:46:06;;;;;;;15.30;7.90;;;;;;;5.18;34.10;102516.28;108608;1276;22013;-77
2022/02/28 11:48:52;;;;;;;11.70;6.80;;;;;;;4.89;35.19;102514.97;108541;1276;23790;-78
2022/02/28 11:51:42;;;;;;;9.00;5.70;;;;;;;4.67;35.61;102523.04;108934;1272;22058;-78
2022/02/28 11:54:14;;;;;;;11.50;6.40;;;;;;;4.39;36.00;102532.30;108692;1273;23768;-77
2022/02/28 11:56:48;;;;;;;10.70;7.00;;;;;;;4.06;36.22;102530.73;108878;1273;22061;-77
2022/02/28 11:59:27;;;;;;;10.60;7.00;;;;;;;3.79;36.63;102529.87;108842;1272;22001;-78